createdAt,value
2023-05-23T00:01:17.253Z,7.95
2023-05-23T00:06:22.551Z,10.32
2023-05-23T00:11:29.289Z,8.82
2023-05-23T00:16:33.788Z,9.32
2023-05-23T00:21:37.486Z,9.88
2023-05-23T00:26:43.763Z,9.35
2023-05-23T00:31:48.312Z,10.07
2023-05-23T00:36:52.406Z,9.77
2023-05-23T00:41:58.122Z,9.85
2023-05-23T00:47:09.480Z,9.10
2023-05-23T00:52:19.479Z,10.20
2023-05-23T00:57:24.387Z,11.10
2023-05-23T01:02:29.355Z,9.75
2023-05-23T01:07:43.201Z,9.50
2023-05-23T01:12:58.079Z,9.25
2023-05-23T01:18:08.494Z,9.15
2023-05-23T01:23:23.945Z,9.82
2023-05-23T01:28:34.178Z,9.52
2023-05-23T01:33:45.298Z,9.60
2023-05-23T01:38:48.785Z,10.48
2023-05-23T01:43:53.933Z,12.40
2023-05-23T01:49:02.359Z,13.23
2023-05-23T01:54:17.158Z,11.38
2023-05-23T01:59:22.372Z,11.63
2023-05-23T02:04:26.065Z,15.52
2023-05-23T02:09:29.731Z,24.45
2023-05-23T02:14:34.725Z,20.83
2023-05-23T02:19:44.236Z,20.38
2023-05-23T02:24:48.784Z,17.60
2023-05-23T02:29:53.787Z,14.13
2023-05-23T02:35:11.112Z,15.27
2023-05-23T02:40:15.736Z,11.25
2023-05-23T02:45:21.895Z,11.82
2023-05-23T02:50:28.723Z,14.95
2023-05-23T02:55:37.759Z,13.52
2023-05-23T03:00:43.916Z,18.05
2023-05-23T03:05:47.607Z,21.15
2023-05-23T03:10:52.286Z,18.08
2023-05-23T03:15:58.299Z,14.65
2023-05-23T03:21:02.583Z,14.52
2023-05-23T03:26:06.968Z,14.80
2023-05-23T03:31:13.244Z,13.27
2023-05-23T03:36:33.501Z,11.05
2023-05-23T03:41:37.204Z,11.50
2023-05-23T03:46:42.765Z,14.73
2023-05-23T03:51:48.552Z,14.57
2023-05-23T03:56:52.166Z,13.75
2023-05-23T04:02:05.351Z,14.70
2023-05-23T04:07:11.629Z,15.77
2023-05-23T04:12:19.716Z,14.00
2023-05-23T04:17:26.872Z,12.25
2023-05-23T04:22:30.859Z,17.10
2023-05-23T04:27:50.846Z,17.27
2023-05-23T04:32:58.616Z,17.50
2023-05-23T04:38:02.473Z,16.25
2023-05-23T04:43:14.635Z,17.13
2023-05-23T04:48:22.368Z,18.83
2023-05-23T04:53:27.968Z,19.63
2023-05-23T04:58:32.039Z,17.73
2023-05-23T05:03:46.016Z,19.35
2023-05-23T05:08:57.265Z,17.85
2023-05-23T05:14:00.727Z,24.85
2023-05-23T05:19:19.429Z,17.90
2023-05-23T05:24:23.568Z,23.80
2023-05-23T05:29:27.130Z,23.05
2023-05-23T05:34:35.367Z,27.52
2023-05-23T05:39:42.249Z,25.95
2023-05-23T05:44:58.123Z,28.02
2023-05-23T05:50:23.728Z,27.08
2023-05-23T05:55:30.466Z,26.17
2023-05-23T06:00:43.885Z,26.27
2023-05-23T06:05:49.691Z,23.45
2023-05-23T06:11:10.009Z,24.30
2023-05-23T06:16:16.656Z,26.58
2023-05-23T06:21:23.407Z,29.15
2023-05-23T06:31:56.700Z,29.15
2023-05-23T06:37:02.702Z,25.67
2023-05-23T06:42:07.161Z,30.67
2023-05-23T06:47:12.630Z,29.35
2023-05-23T06:52:18.784Z,29.67
2023-05-23T06:57:22.417Z,26.08
2023-05-23T07:02:26.138Z,26.88
2023-05-23T07:07:38.653Z,29.17
2023-05-23T07:12:43.826Z,27.50
2023-05-23T07:17:59.766Z,28.00
2023-05-23T07:23:06.278Z,30.73
2023-05-23T07:28:16.183Z,26.98
2023-05-23T07:33:23.452Z,30.77
2023-05-23T07:38:46.777Z,29.83
2023-05-23T07:44:32.360Z,25.15
2023-05-23T07:49:44.416Z,24.65
2023-05-23T07:54:50.841Z,26.73
2023-05-23T08:00:00.026Z,25.60
2023-05-23T08:05:08.876Z,25.50
2023-05-23T08:10:14.388Z,25.35
2023-05-23T08:15:18.208Z,23.85
2023-05-23T08:20:29.240Z,24.58
2023-05-23T08:31:12.908Z,23.77
2023-05-23T08:36:18.019Z,23.85
2023-05-23T08:41:30.303Z,23.50
2023-05-23T08:46:41.181Z,23.55
2023-05-23T08:52:19.397Z,21.92
2023-05-23T08:57:26.996Z,19.65
2023-05-23T09:08:22.198Z,18.98
2023-05-23T09:13:30.625Z,20.15
2023-05-23T09:18:42.746Z,17.80
2023-05-23T09:23:51.583Z,18.00
2023-05-23T09:28:59.619Z,17.02
2023-05-23T09:34:05.589Z,16.55
2023-05-23T09:39:23.410Z,15.77
2023-05-23T09:44:31.711Z,14.27
2023-05-23T09:49:36.216Z,12.63
2023-05-23T09:54:41.884Z,12.35
2023-05-23T09:59:59.511Z,10.65
2023-05-23T10:10:36.442Z,11.48
2023-05-23T10:15:43.780Z,12.07
2023-05-23T10:20:59.316Z,11.90
2023-05-23T10:26:14.548Z,12.60
2023-05-23T10:31:22.597Z,11.45
2023-05-23T10:36:41.340Z,11.32
2023-05-23T10:41:55.533Z,11.07
2023-05-23T10:47:06.533Z,12.38
2023-05-23T10:52:23.467Z,9.75
2023-05-23T10:57:30.154Z,9.73
2023-05-23T11:03:08.751Z,11.23
2023-05-23T11:08:15.092Z,10.45
2023-05-23T11:13:25.391Z,11.05
2023-05-23T11:18:36.401Z,10.85
2023-05-23T11:23:47.720Z,11.90
2023-05-23T11:29:02.351Z,10.30
2023-05-23T11:34:08.025Z,9.73
2023-05-23T11:39:23.017Z,10.18
2023-05-23T11:44:41.219Z,9.23
2023-05-23T11:55:42.101Z,9.10
2023-05-23T12:00:48.069Z,8.82
2023-05-23T12:06:02.800Z,8.68
2023-05-23T12:11:10.614Z,7.90
2023-05-23T12:16:29.558Z,7.45
2023-05-23T12:21:50.095Z,8.52
2023-05-23T12:26:59.448Z,7.88
2023-05-23T12:32:04.694Z,8.07
2023-05-23T12:37:20.975Z,7.63
2023-05-23T12:42:27.821Z,7.57
2023-05-23T12:47:38.862Z,6.53
2023-05-23T12:52:53.728Z,6.53
2023-05-23T12:58:05.091Z,6.53
2023-05-23T13:03:12.311Z,5.82
2023-05-23T13:08:26.398Z,6.03
2023-05-23T13:13:33.466Z,5.88
2023-05-23T13:18:43.308Z,5.45
2023-05-23T13:23:48.416Z,5.25
2023-05-23T13:34:26.905Z,4.03
2023-05-23T13:39:36.752Z,3.92
2023-05-23T13:44:41.861Z,3.63
2023-05-23T13:49:45.683Z,3.50
2023-05-23T13:54:57.676Z,3.15
2023-05-23T14:00:05.842Z,3.50
2023-05-23T14:05:13.892Z,2.95
2023-05-23T14:10:26.318Z,3.63
2023-05-23T14:15:40.277Z,2.97
2023-05-23T14:20:43.888Z,3.30
2023-05-23T14:26:02.392Z,3.17
2023-05-23T14:31:12.146Z,2.40
2023-05-23T14:36:25.838Z,2.42
2023-05-23T14:41:45.211Z,2.58
2023-05-23T14:47:01.302Z,2.65
2023-05-23T14:52:08.995Z,2.80
2023-05-23T14:57:14.728Z,2.50
2023-05-23T15:02:18.279Z,2.42
2023-05-23T15:07:30.330Z,2.40
2023-05-23T15:12:43.319Z,2.60
2023-05-23T15:17:56.729Z,2.33
2023-05-23T15:23:07.105Z,2.78
2023-05-23T15:28:25.934Z,1.70
2023-05-23T15:33:29.642Z,2.08
2023-05-23T15:38:36.139Z,2.30
2023-05-23T15:43:53.874Z,2.33
2023-05-23T15:49:10.596Z,2.28
2023-05-23T15:54:27.008Z,2.00
2023-05-23T15:59:32.740Z,1.98
2023-05-23T16:04:36.537Z,2.30
2023-05-23T16:09:47.084Z,2.10
2023-05-23T16:14:58.719Z,2.20
2023-05-23T16:20:32.538Z,2.33
2023-05-23T16:25:48.005Z,2.10
2023-05-23T16:30:53.539Z,2.30
2023-05-23T16:35:57.115Z,1.90
2023-05-23T16:41:00.949Z,2.28
2023-05-23T16:46:40.085Z,2.25
2023-05-23T16:51:55.920Z,3.10
2023-05-23T16:57:02.916Z,2.65
2023-05-23T17:02:11.662Z,2.70
2023-05-23T17:07:16.706Z,2.47
2023-05-23T17:12:20.252Z,2.20
2023-05-23T17:17:36.503Z,2.08
2023-05-23T17:22:40.125Z,2.78
2023-05-23T17:27:43.692Z,2.15
2023-05-23T17:32:49.270Z,2.83
2023-05-23T17:37:59.255Z,3.50
2023-05-23T17:43:04.709Z,3.50
2023-05-23T17:48:31.215Z,3.97
2023-05-23T17:53:57.532Z,4.93
2023-05-23T17:59:07.590Z,4.70
2023-05-23T18:04:14.827Z,5.07
2023-05-23T18:09:26.258Z,5.60
2023-05-23T18:14:40.141Z,4.90
2023-05-23T18:19:50.112Z,4.95
2023-05-23T18:24:56.780Z,4.50
2023-05-23T18:30:04.901Z,3.90
2023-05-23T18:35:12.398Z,4.15
2023-05-23T18:40:16.339Z,4.20
2023-05-23T18:45:21.405Z,4.45
2023-05-23T18:50:28.106Z,3.88
2023-05-23T18:55:35.443Z,4.20
2023-05-23T19:00:43.955Z,3.60
2023-05-23T19:05:51.196Z,4.00
2023-05-23T19:10:55.651Z,3.97
2023-05-23T19:16:00.328Z,3.83
2023-05-23T19:21:05.464Z,4.20
2023-05-23T19:26:10.398Z,4.15
2023-05-23T19:31:13.772Z,3.92
2023-05-23T19:36:18.617Z,4.20
2023-05-23T19:41:22.445Z,3.90
2023-05-23T19:46:29.207Z,3.85
2023-05-23T19:57:06.374Z,4.30
2023-05-23T20:02:09.916Z,4.88
2023-05-23T20:07:17.774Z,5.95
2023-05-23T20:12:21.224Z,5.82
2023-05-23T20:17:25.643Z,6.30
2023-05-23T20:22:30.742Z,5.90
2023-05-23T20:27:34.772Z,5.93
2023-05-23T20:32:38.626Z,5.40
2023-05-23T20:37:44.208Z,6.65
2023-05-23T20:42:48.277Z,6.20
2023-05-23T20:47:53.717Z,6.30
2023-05-23T20:52:59.432Z,5.50
2023-05-23T20:58:04.837Z,6.63
2023-05-23T21:03:08.363Z,5.68
2023-05-23T21:08:16.040Z,6.45
2023-05-23T21:13:19.522Z,5.10
2023-05-23T21:18:23.106Z,5.47
2023-05-23T21:23:27.761Z,5.57
2023-05-23T21:28:32.616Z,5.65
2023-05-23T21:33:36.621Z,5.50
2023-05-23T21:38:43.390Z,5.80
2023-05-23T21:43:46.847Z,5.07
2023-05-23T21:48:50.294Z,4.70
2023-05-23T21:53:57.609Z,4.93
2023-05-23T21:59:02.982Z,4.88
2023-05-23T22:04:06.663Z,4.28
2023-05-23T22:09:13.020Z,4.97
2023-05-23T22:14:19.045Z,4.40
2023-05-23T22:19:30.682Z,3.97
2023-05-23T22:24:35.612Z,3.92
2023-05-23T22:29:39.115Z,2.97
2023-05-23T22:34:45.561Z,3.58
2023-05-23T22:39:50.402Z,3.13
2023-05-23T22:44:54.179Z,3.08
2023-05-23T22:49:59.309Z,2.90
2023-05-23T22:55:07.326Z,2.42
2023-05-23T23:00:14.024Z,2.92
2023-05-23T23:05:17.865Z,2.20
2023-05-23T23:10:23.265Z,2.58
2023-05-23T23:15:26.764Z,2.55
2023-05-23T23:20:30.919Z,2.25
2023-05-23T23:25:36.646Z,2.10
2023-05-23T23:30:44.028Z,2.63
2023-05-23T23:35:49.097Z,2.45
2023-05-23T23:40:54.236Z,2.80
2023-05-23T23:45:58.314Z,2.50
2023-05-23T23:51:02.349Z,2.35
2023-05-23T23:56:08.000Z,2.50
